sensor_id;sensor_type;location;lat;lon;timestamp;P1;durP1;ratioP1;P2;durP2;ratioP2
74328;SDS011;62745;51.060;13.786;2023-01-06T00:02:09;4.20;;;1.57;;
74328;SDS011;62745;51.060;13.786;2023-01-06T00:04:34;4.57;;;1.37;;
74328;SDS011;62745;51.060;13.786;2023-01-06T00:07:00;2.85;;;1.30;;
74328;SDS011;62745;51.060;13.786;2023-01-06T00:09:25;4.37;;;1.80;;
74328;SDS011;62745;51.060;13.786;2023-01-06T00:11:50;5.63;;;1.60;;
74328;SDS011;62745;51.060;13.786;2023-01-06T00:14:16;3.30;;;1.50;;
74328;SDS011;62745;51.060;13.786;2023-01-06T00:16:41;3.88;;;1.77;;
74328;SDS011;62745;51.060;13.786;2023-01-06T00:19:08;5.97;;;1.80;;
74328;SDS011;62745;51.060;13.786;2023-01-06T00:21:34;4.35;;;1.83;;
74328;SDS011;62745;51.060;13.786;2023-01-06T00:23:59;8.17;;;2.00;;
74328;SDS011;62745;51.060;13.786;2023-01-06T00:26:24;4.73;;;1.87;;
74328;SDS011;62745;51.060;13.786;2023-01-06T00:28:53;3.38;;;1.65;;
74328;SDS011;62745;51.060;13.786;2023-01-06T00:31:19;6.40;;;1.60;;
74328;SDS011;62745;51.060;13.786;2023-01-06T00:33:45;4.88;;;1.92;;
74328;SDS011;62745;51.060;13.786;2023-01-06T00:36:11;4.93;;;2.10;;
74328;SDS011;62745;51.060;13.786;2023-01-06T00:38:37;2.95;;;1.67;;
74328;SDS011;62745;51.060;13.786;2023-01-06T00:41:07;3.83;;;1.60;;
74328;SDS011;62745;51.060;13.786;2023-01-06T00:43:53;2.97;;;1.40;;
74328;SDS011;62745;51.060;13.786;2023-01-06T00:46:19;3.47;;;1.50;;
74328;SDS011;62745;51.060;13.786;2023-01-06T00:48:44;5.32;;;1.80;;
74328;SDS011;62745;51.060;13.786;2023-01-06T00:51:09;3.50;;;1.60;;
74328;SDS011;62745;51.060;13.786;2023-01-06T00:53:35;4.17;;;1.80;;
74328;SDS011;62745;51.060;13.786;2023-01-06T00:56:00;5.20;;;1.80;;
74328;SDS011;62745;51.060;13.786;2023-01-06T00:58:31;5.40;;;1.77;;
74328;SDS011;62745;51.060;13.786;2023-01-06T01:00:57;4.63;;;2.15;;
74328;SDS011;62745;51.060;13.786;2023-01-06T01:03:23;7.45;;;2.08;;
74328;SDS011;62745;51.060;13.786;2023-01-06T01:05:48;7.78;;;2.35;;
74328;SDS011;62745;51.060;13.786;2023-01-06T01:08:14;8.20;;;2.05;;
74328;SDS011;62745;51.060;13.786;2023-01-06T01:10:39;6.47;;;1.90;;
74328;SDS011;62745;51.060;13.786;2023-01-06T01:13:04;4.13;;;1.90;;
74328;SDS011;62745;51.060;13.786;2023-01-06T01:15:30;9.50;;;2.50;;
74328;SDS011;62745;51.060;13.786;2023-01-06T01:17:55;8.48;;;2.20;;
74328;SDS011;62745;51.060;13.786;2023-01-06T01:20:21;6.30;;;2.25;;
74328;SDS011;62745;51.060;13.786;2023-01-06T01:22:46;5.25;;;1.80;;
74328;SDS011;62745;51.060;13.786;2023-01-06T01:25:11;5.40;;;2.20;;
74328;SDS011;62745;51.060;13.786;2023-01-06T01:27:36;4.90;;;1.80;;
74328;SDS011;62745;51.060;13.786;2023-01-06T01:30:02;4.27;;;1.67;;
74328;SDS011;62745;51.060;13.786;2023-01-06T01:32:28;5.40;;;1.73;;
74328;SDS011;62745;51.060;13.786;2023-01-06T01:34:53;8.43;;;2.23;;
74328;SDS011;62745;51.060;13.786;2023-01-06T01:37:18;5.87;;;1.60;;
74328;SDS011;62745;51.060;13.786;2023-01-06T01:39:43;6.03;;;1.70;;
74328;SDS011;62745;51.060;13.786;2023-01-06T01:42:14;4.40;;;2.07;;
74328;SDS011;62745;51.060;13.786;2023-01-06T01:44:49;4.80;;;1.75;;
74328;SDS011;62745;51.060;13.786;2023-01-06T01:47:38;5.82;;;1.88;;
74328;SDS011;62745;51.060;13.786;2023-01-06T01:50:10;6.10;;;2.00;;
74328;SDS011;62745;51.060;13.786;2023-01-06T01:52:37;4.93;;;1.95;;
74328;SDS011;62745;51.060;13.786;2023-01-06T01:55:03;6.45;;;2.03;;
74328;SDS011;62745;51.060;13.786;2023-01-06T01:57:31;5.30;;;2.22;;
74328;SDS011;62745;51.060;13.786;2023-01-06T02:00:04;7.75;;;2.03;;
74328;SDS011;62745;51.060;13.786;2023-01-06T02:02:31;7.05;;;1.60;;
74328;SDS011;62745;51.060;13.786;2023-01-06T02:04:57;3.57;;;1.80;;
74328;SDS011;62745;51.060;13.786;2023-01-06T02:07:25;5.85;;;1.70;;
74328;SDS011;62745;51.060;13.786;2023-01-06T02:10:07;6.03;;;2.00;;
74328;SDS011;62745;51.060;13.786;2023-01-06T02:12:35;6.40;;;1.98;;
74328;SDS011;62745;51.060;13.786;2023-01-06T02:15:02;4.97;;;1.92;;
74328;SDS011;62745;51.060;13.786;2023-01-06T02:18:06;6.35;;;1.70;;
74328;SDS011;62745;51.060;13.786;2023-01-06T02:20:28;7.72;;;1.98;;
74328;SDS011;62745;51.060;13.786;2023-01-06T02:28:48;5.72;;;2.03;;
74328;SDS011;62745;51.060;13.786;2023-01-06T02:31:42;5.57;;;1.95;;
74328;SDS011;62745;51.060;13.786;2023-01-06T02:40:11;6.75;;;2.08;;
74328;SDS011;62745;51.060;13.786;2023-01-06T02:45:43;4.63;;;1.98;;
74328;SDS011;62745;51.060;13.786;2023-01-06T02:54:10;7.90;;;2.20;;
74328;SDS011;62745;51.060;13.786;2023-01-06T02:56:45;7.05;;;2.10;;
74328;SDS011;62745;51.060;13.786;2023-01-06T02:59:19;6.03;;;2.45;;
74328;SDS011;62745;51.060;13.786;2023-01-06T03:01:49;6.65;;;1.95;;
74328;SDS011;62745;51.060;13.786;2023-01-06T03:04:19;4.30;;;2.10;;
74328;SDS011;62745;51.060;13.786;2023-01-06T03:06:49;10.80;;;2.50;;
74328;SDS011;62745;51.060;13.786;2023-01-06T03:09:18;5.93;;;2.60;;
74328;SDS011;62745;51.060;13.786;2023-01-06T03:11:48;11.20;;;2.40;;
74328;SDS011;62745;51.060;13.786;2023-01-06T03:14:22;5.45;;;2.30;;
74328;SDS011;62745;51.060;13.786;2023-01-06T03:16:52;7.85;;;2.50;;
74328;SDS011;62745;51.060;13.786;2023-01-06T03:19:18;6.43;;;2.42;;
74328;SDS011;62745;51.060;13.786;2023-01-06T03:21:44;6.72;;;2.28;;
74328;SDS011;62745;51.060;13.786;2023-01-06T03:24:11;5.68;;;2.28;;
74328;SDS011;62745;51.060;13.786;2023-01-06T03:26:37;4.47;;;2.40;;
74328;SDS011;62745;51.060;13.786;2023-01-06T03:29:04;5.38;;;2.03;;
74328;SDS011;62745;51.060;13.786;2023-01-06T03:31:37;6.68;;;2.10;;
74328;SDS011;62745;51.060;13.786;2023-01-06T03:34:12;4.40;;;2.08;;
74328;SDS011;62745;51.060;13.786;2023-01-06T03:40:00;3.95;;;2.00;;
74328;SDS011;62745;51.060;13.786;2023-01-06T03:42:34;5.03;;;1.83;;
74328;SDS011;62745;51.060;13.786;2023-01-06T03:50:49;4.78;;;1.90;;
74328;SDS011;62745;51.060;13.786;2023-01-06T03:56:08;6.97;;;1.73;;
74328;SDS011;62745;51.060;13.786;2023-01-06T03:58:40;4.15;;;1.88;;
74328;SDS011;62745;51.060;13.786;2023-01-06T04:01:10;6.95;;;2.03;;
74328;SDS011;62745;51.060;13.786;2023-01-06T04:03:37;5.07;;;1.73;;
74328;SDS011;62745;51.060;13.786;2023-01-06T04:06:02;5.38;;;1.52;;
74328;SDS011;62745;51.060;13.786;2023-01-06T04:08:28;4.70;;;1.52;;
74328;SDS011;62745;51.060;13.786;2023-01-06T04:10:53;5.53;;;1.90;;
74328;SDS011;62745;51.060;13.786;2023-01-06T04:13:18;3.87;;;1.40;;
74328;SDS011;62745;51.060;13.786;2023-01-06T04:15:43;5.30;;;1.90;;
74328;SDS011;62745;51.060;13.786;2023-01-06T04:18:09;5.93;;;1.60;;
74328;SDS011;62745;51.060;13.786;2023-01-06T04:20:34;7.13;;;1.47;;
74328;SDS011;62745;51.060;13.786;2023-01-06T04:22:59;4.87;;;1.50;;
74328;SDS011;62745;51.060;13.786;2023-01-06T04:25:24;3.40;;;1.50;;
74328;SDS011;62745;51.060;13.786;2023-01-06T04:27:50;3.70;;;1.40;;
74328;SDS011;62745;51.060;13.786;2023-01-06T04:30:16;4.38;;;1.30;;
74328;SDS011;62745;51.060;13.786;2023-01-06T04:32:42;4.22;;;1.60;;
74328;SDS011;62745;51.060;13.786;2023-01-06T04:35:08;4.68;;;1.50;;
74328;SDS011;62745;51.060;13.786;2023-01-06T04:37:33;5.30;;;1.40;;
74328;SDS011;62745;51.060;13.786;2023-01-06T04:39:59;5.43;;;1.80;;
74328;SDS011;62745;51.060;13.786;2023-01-06T04:42:24;5.73;;;1.67;;
74328;SDS011;62745;51.060;13.786;2023-01-06T04:44:49;7.30;;;1.63;;
74328;SDS011;62745;51.060;13.786;2023-01-06T04:47:14;7.67;;;2.43;;
74328;SDS011;62745;51.060;13.786;2023-01-06T04:49:40;5.00;;;1.90;;
74328;SDS011;62745;51.060;13.786;2023-01-06T04:52:05;7.00;;;2.13;;
74328;SDS011;62745;51.060;13.786;2023-01-06T04:54:32;8.60;;;2.50;;
74328;SDS011;62745;51.060;13.786;2023-01-06T04:56:58;5.85;;;2.53;;
74328;SDS011;62745;51.060;13.786;2023-01-06T04:59:23;7.03;;;2.27;;
74328;SDS011;62745;51.060;13.786;2023-01-06T05:01:49;6.57;;;2.07;;
74328;SDS011;62745;51.060;13.786;2023-01-06T05:04:14;8.05;;;2.47;;
74328;SDS011;62745;51.060;13.786;2023-01-06T05:06:39;5.03;;;1.73;;
74328;SDS011;62745;51.060;13.786;2023-01-06T05:09:05;4.67;;;1.77;;
74328;SDS011;62745;51.060;13.786;2023-01-06T05:11:30;7.25;;;2.45;;
74328;SDS011;62745;51.060;13.786;2023-01-06T05:13:56;4.22;;;1.85;;
74328;SDS011;62745;51.060;13.786;2023-01-06T05:16:23;6.05;;;1.80;;
74328;SDS011;62745;51.060;13.786;2023-01-06T05:18:50;6.10;;;2.20;;
74328;SDS011;62745;51.060;13.786;2023-01-06T05:21:15;6.95;;;2.10;;
74328;SDS011;62745;51.060;13.786;2023-01-06T05:23:41;6.00;;;2.38;;
74328;SDS011;62745;51.060;13.786;2023-01-06T05:26:06;4.63;;;2.03;;
74328;SDS011;62745;51.060;13.786;2023-01-06T05:28:33;5.05;;;1.98;;
74328;SDS011;62745;51.060;13.786;2023-01-06T05:30:59;7.07;;;2.45;;
74328;SDS011;62745;51.060;13.786;2023-01-06T05:33:25;6.10;;;1.88;;
74328;SDS011;62745;51.060;13.786;2023-01-06T05:36:00;6.33;;;1.70;;
74328;SDS011;62745;51.060;13.786;2023-01-06T05:38:30;6.65;;;2.28;;
74328;SDS011;62745;51.060;13.786;2023-01-06T05:40:55;8.53;;;2.17;;
74328;SDS011;62745;51.060;13.786;2023-01-06T05:43:21;7.28;;;2.30;;
74328;SDS011;62745;51.060;13.786;2023-01-06T05:45:46;5.75;;;1.90;;
74328;SDS011;62745;51.060;13.786;2023-01-06T05:48:12;7.03;;;2.38;;
74328;SDS011;62745;51.060;13.786;2023-01-06T05:50:37;7.70;;;1.70;;
74328;SDS011;62745;51.060;13.786;2023-01-06T05:53:02;7.43;;;2.50;;
74328;SDS011;62745;51.060;13.786;2023-01-06T05:55:28;6.57;;;2.93;;
74328;SDS011;62745;51.060;13.786;2023-01-06T05:57:53;5.27;;;2.40;;
74328;SDS011;62745;51.060;13.786;2023-01-06T06:00:18;7.57;;;2.40;;
74328;SDS011;62745;51.060;13.786;2023-01-06T06:02:43;7.60;;;2.42;;
74328;SDS011;62745;51.060;13.786;2023-01-06T06:05:09;6.23;;;2.20;;
74328;SDS011;62745;51.060;13.786;2023-01-06T06:07:34;6.63;;;3.13;;
74328;SDS011;62745;51.060;13.786;2023-01-06T06:09:59;5.90;;;2.53;;
74328;SDS011;62745;51.060;13.786;2023-01-06T06:12:25;7.13;;;2.63;;
74328;SDS011;62745;51.060;13.786;2023-01-06T06:14:50;7.27;;;2.97;;
74328;SDS011;62745;51.060;13.786;2023-01-06T06:17:15;6.73;;;3.20;;
74328;SDS011;62745;51.060;13.786;2023-01-06T06:19:40;6.63;;;2.40;;
74328;SDS011;62745;51.060;13.786;2023-01-06T06:22:06;8.57;;;2.60;;
74328;SDS011;62745;51.060;13.786;2023-01-06T06:24:31;10.07;;;3.00;;
74328;SDS011;62745;51.060;13.786;2023-01-06T06:26:56;14.07;;;3.53;;
74328;SDS011;62745;51.060;13.786;2023-01-06T06:29:22;8.70;;;3.07;;
74328;SDS011;62745;51.060;13.786;2023-01-06T06:31:47;10.00;;;2.93;;
74328;SDS011;62745;51.060;13.786;2023-01-06T06:34:12;8.20;;;2.93;;
74328;SDS011;62745;51.060;13.786;2023-01-06T06:36:38;11.40;;;3.43;;
74328;SDS011;62745;51.060;13.786;2023-01-06T06:39:03;10.55;;;3.65;;
74328;SDS011;62745;51.060;13.786;2023-01-06T06:41:28;9.47;;;3.10;;
74328;SDS011;62745;51.060;13.786;2023-01-06T06:43:54;10.87;;;3.27;;
74328;SDS011;62745;51.060;13.786;2023-01-06T06:46:19;9.20;;;3.03;;
74328;SDS011;62745;51.060;13.786;2023-01-06T06:48:44;9.20;;;2.72;;
74328;SDS011;62745;51.060;13.786;2023-01-06T06:51:15;10.88;;;3.30;;
74328;SDS011;62745;51.060;13.786;2023-01-06T06:53:42;7.57;;;2.85;;
74328;SDS011;62745;51.060;13.786;2023-01-06T06:56:08;10.57;;;3.40;;
74328;SDS011;62745;51.060;13.786;2023-01-06T06:58:35;7.10;;;2.92;;
74328;SDS011;62745;51.060;13.786;2023-01-06T07:01:08;11.45;;;3.28;;
74328;SDS011;62745;51.060;13.786;2023-01-06T07:03:35;10.93;;;3.08;;
74328;SDS011;62745;51.060;13.786;2023-01-06T07:06:00;13.85;;;3.53;;
74328;SDS011;62745;51.060;13.786;2023-01-06T07:08:27;7.20;;;3.13;;
74328;SDS011;62745;51.060;13.786;2023-01-06T07:10:53;9.50;;;3.35;;
74328;SDS011;62745;51.060;13.786;2023-01-06T07:13:18;6.13;;;2.88;;
74328;SDS011;62745;51.060;13.786;2023-01-06T07:15:43;9.27;;;3.03;;
74328;SDS011;62745;51.060;13.786;2023-01-06T07:18:09;6.80;;;2.80;;
74328;SDS011;62745;51.060;13.786;2023-01-06T07:20:35;9.63;;;4.00;;
74328;SDS011;62745;51.060;13.786;2023-01-06T07:23:01;11.35;;;3.90;;
74328;SDS011;62745;51.060;13.786;2023-01-06T07:25:27;11.07;;;3.78;;
74328;SDS011;62745;51.060;13.786;2023-01-06T07:27:53;9.77;;;3.95;;
74328;SDS011;62745;51.060;13.786;2023-01-06T07:30:19;9.20;;;3.55;;
74328;SDS011;62745;51.060;13.786;2023-01-06T07:32:45;10.68;;;3.72;;
74328;SDS011;62745;51.060;13.786;2023-01-06T07:35:10;10.73;;;3.60;;
74328;SDS011;62745;51.060;13.786;2023-01-06T07:37:36;12.83;;;3.73;;
74328;SDS011;62745;51.060;13.786;2023-01-06T07:40:01;9.83;;;3.60;;
74328;SDS011;62745;51.060;13.786;2023-01-06T07:42:26;9.03;;;4.00;;
74328;SDS011;62745;51.060;13.786;2023-01-06T07:44:51;11.47;;;4.00;;
74328;SDS011;62745;51.060;13.786;2023-01-06T07:47:17;9.27;;;3.70;;
74328;SDS011;62745;51.060;13.786;2023-01-06T07:49:42;10.53;;;3.43;;
74328;SDS011;62745;51.060;13.786;2023-01-06T07:52:07;8.32;;;3.10;;
74328;SDS011;62745;51.060;13.786;2023-01-06T07:54:32;9.97;;;3.47;;
74328;SDS011;62745;51.060;13.786;2023-01-06T07:56:58;8.00;;;3.08;;
74328;SDS011;62745;51.060;13.786;2023-01-06T07:59:23;12.33;;;3.63;;
74328;SDS011;62745;51.060;13.786;2023-01-06T08:01:48;8.83;;;4.17;;
74328;SDS011;62745;51.060;13.786;2023-01-06T08:04:13;8.63;;;3.58;;
74328;SDS011;62745;51.060;13.786;2023-01-06T08:06:39;9.17;;;3.83;;
74328;SDS011;62745;51.060;13.786;2023-01-06T08:09:04;9.13;;;4.15;;
74328;SDS011;62745;51.060;13.786;2023-01-06T08:11:30;9.70;;;3.60;;
74328;SDS011;62745;51.060;13.786;2023-01-06T08:13:55;12.03;;;4.03;;
74328;SDS011;62745;51.060;13.786;2023-01-06T08:16:20;8.60;;;3.57;;
74328;SDS011;62745;51.060;13.786;2023-01-06T08:18:46;10.67;;;3.80;;
74328;SDS011;62745;51.060;13.786;2023-01-06T08:21:11;8.67;;;4.17;;
74328;SDS011;62745;51.060;13.786;2023-01-06T08:23:36;8.88;;;4.07;;
74328;SDS011;62745;51.060;13.786;2023-01-06T08:26:06;10.02;;;3.40;;
74328;SDS011;62745;51.060;13.786;2023-01-06T08:28:33;8.98;;;4.32;;
74328;SDS011;62745;51.060;13.786;2023-01-06T08:30:59;8.88;;;4.32;;
74328;SDS011;62745;51.060;13.786;2023-01-06T08:33:25;9.52;;;3.78;;
74328;SDS011;62745;51.060;13.786;2023-01-06T08:36:01;6.95;;;3.70;;
74328;SDS011;62745;51.060;13.786;2023-01-06T08:38:28;7.70;;;3.50;;
74328;SDS011;62745;51.060;13.786;2023-01-06T08:40:55;9.48;;;3.80;;
74328;SDS011;62745;51.060;13.786;2023-01-06T08:43:21;7.30;;;3.72;;
74328;SDS011;62745;51.060;13.786;2023-01-06T08:45:47;11.23;;;4.20;;
74328;SDS011;62745;51.060;13.786;2023-01-06T08:48:13;8.93;;;4.10;;
74328;SDS011;62745;51.060;13.786;2023-01-06T08:50:39;8.57;;;4.10;;
74328;SDS011;62745;51.060;13.786;2023-01-06T08:53:05;8.55;;;4.18;;
74328;SDS011;62745;51.060;13.786;2023-01-06T08:55:31;7.80;;;3.70;;
74328;SDS011;62745;51.060;13.786;2023-01-06T08:57:57;9.25;;;3.70;;
74328;SDS011;62745;51.060;13.786;2023-01-06T09:00:22;7.23;;;3.73;;
74328;SDS011;62745;51.060;13.786;2023-01-06T09:02:48;7.07;;;3.45;;
74328;SDS011;62745;51.060;13.786;2023-01-06T09:05:13;13.43;;;3.17;;
74328;SDS011;62745;51.060;13.786;2023-01-06T09:07:38;6.57;;;3.07;;
74328;SDS011;62745;51.060;13.786;2023-01-06T09:10:03;7.07;;;3.47;;
74328;SDS011;62745;51.060;13.786;2023-01-06T09:12:29;7.32;;;2.95;;
74328;SDS011;62745;51.060;13.786;2023-01-06T09:14:54;8.20;;;3.20;;
74328;SDS011;62745;51.060;13.786;2023-01-06T09:17:20;8.57;;;2.93;;
74328;SDS011;62745;51.060;13.786;2023-01-06T09:19:45;6.13;;;2.60;;
74328;SDS011;62745;51.060;13.786;2023-01-06T09:22:10;5.03;;;2.60;;
74328;SDS011;62745;51.060;13.786;2023-01-06T09:24:35;6.00;;;2.40;;
74328;SDS011;62745;51.060;13.786;2023-01-06T09:27:01;6.23;;;2.70;;
74328;SDS011;62745;51.060;13.786;2023-01-06T09:29:29;6.87;;;3.40;;
74328;SDS011;62745;51.060;13.786;2023-01-06T09:31:55;6.25;;;2.42;;
74328;SDS011;62745;51.060;13.786;2023-01-06T09:34:20;7.40;;;3.13;;
74328;SDS011;62745;51.060;13.786;2023-01-06T09:36:45;7.07;;;3.07;;
74328;SDS011;62745;51.060;13.786;2023-01-06T09:39:10;7.10;;;2.93;;
74328;SDS011;62745;51.060;13.786;2023-01-06T09:44:33;6.97;;;2.85;;
74328;SDS011;62745;51.060;13.786;2023-01-06T09:47:05;6.20;;;3.13;;
74328;SDS011;62745;51.060;13.786;2023-01-06T09:49:43;6.10;;;3.10;;
74328;SDS011;62745;51.060;13.786;2023-01-06T09:52:27;6.60;;;3.25;;
74328;SDS011;62745;51.060;13.786;2023-01-06T09:55:01;6.63;;;2.90;;
74328;SDS011;62745;51.060;13.786;2023-01-06T09:57:31;15.13;;;3.25;;
74328;SDS011;62745;51.060;13.786;2023-01-06T10:03:16;6.68;;;2.40;;
74328;SDS011;62745;51.060;13.786;2023-01-06T10:17:00;6.43;;;2.60;;
74328;SDS011;62745;51.060;13.786;2023-01-06T10:22:39;6.35;;;2.85;;
74328;SDS011;62745;51.060;13.786;2023-01-06T10:25:18;6.47;;;2.60;;
74328;SDS011;62745;51.060;13.786;2023-01-06T10:27:57;7.15;;;2.97;;
74328;SDS011;62745;51.060;13.786;2023-01-06T10:30:28;8.07;;;3.08;;
74328;SDS011;62745;51.060;13.786;2023-01-06T10:32:58;5.68;;;2.50;;
74328;SDS011;62745;51.060;13.786;2023-01-06T10:35:25;4.90;;;2.58;;
74328;SDS011;62745;51.060;13.786;2023-01-06T10:37:51;5.05;;;2.22;;
74328;SDS011;62745;51.060;13.786;2023-01-06T10:40:22;5.45;;;2.35;;
74328;SDS011;62745;51.060;13.786;2023-01-06T10:42:50;8.30;;;3.03;;
74328;SDS011;62745;51.060;13.786;2023-01-06T10:45:19;5.70;;;2.72;;
74328;SDS011;62745;51.060;13.786;2023-01-06T10:47:45;5.28;;;2.33;;
74328;SDS011;62745;51.060;13.786;2023-01-06T10:50:11;5.47;;;2.67;;
74328;SDS011;62745;51.060;13.786;2023-01-06T10:52:38;5.97;;;2.40;;
74328;SDS011;62745;51.060;13.786;2023-01-06T10:55:04;4.70;;;2.13;;
74328;SDS011;62745;51.060;13.786;2023-01-06T10:57:32;5.07;;;2.25;;
74328;SDS011;62745;51.060;13.786;2023-01-06T11:02:50;8.35;;;2.10;;
74328;SDS011;62745;51.060;13.786;2023-01-06T11:05:18;6.07;;;2.10;;
74328;SDS011;62745;51.060;13.786;2023-01-06T11:10:57;11.23;;;2.63;;
74328;SDS011;62745;51.060;13.786;2023-01-06T11:13:23;35.70;;;5.65;;
74328;SDS011;62745;51.060;13.786;2023-01-06T11:15:52;9.85;;;2.78;;
74328;SDS011;62745;51.060;13.786;2023-01-06T11:18:27;5.32;;;2.10;;
74328;SDS011;62745;51.060;13.786;2023-01-06T11:21:10;6.60;;;2.45;;
74328;SDS011;62745;51.060;13.786;2023-01-06T11:23:37;5.97;;;1.85;;
74328;SDS011;62745;51.060;13.786;2023-01-06T11:28:35;3.95;;;1.70;;
74328;SDS011;62745;51.060;13.786;2023-01-06T11:31:05;4.22;;;2.03;;
74328;SDS011;62745;51.060;13.786;2023-01-06T11:33:34;5.20;;;1.83;;
74328;SDS011;62745;51.060;13.786;2023-01-06T11:36:06;3.75;;;1.20;;
74328;SDS011;62745;51.060;13.786;2023-01-06T11:38:40;2.60;;;0.93;;
74328;SDS011;62745;51.060;13.786;2023-01-06T11:41:08;1.42;;;0.52;;
74328;SDS011;62745;51.060;13.786;2023-01-06T11:43:35;6.57;;;1.17;;
74328;SDS011;62745;51.060;13.786;2023-01-06T11:46:03;2.50;;;0.70;;
74328;SDS011;62745;51.060;13.786;2023-01-06T11:48:47;2.10;;;0.80;;
74328;SDS011;62745;51.060;13.786;2023-01-06T11:51:29;1.73;;;0.70;;
74328;SDS011;62745;51.060;13.786;2023-01-06T11:53:56;1.40;;;0.68;;
74328;SDS011;62745;51.060;13.786;2023-01-06T11:56:21;1.52;;;0.60;;
74328;SDS011;62745;51.060;13.786;2023-01-06T12:04:32;2.97;;;1.10;;
74328;SDS011;62745;51.060;13.786;2023-01-06T12:07:24;1.85;;;0.82;;
74328;SDS011;62745;51.060;13.786;2023-01-06T12:09:58;1.58;;;0.73;;
74328;SDS011;62745;51.060;13.786;2023-01-06T12:12:30;1.85;;;0.70;;
74328;SDS011;62745;51.060;13.786;2023-01-06T12:14:56;2.78;;;1.10;;
74328;SDS011;62745;51.060;13.786;2023-01-06T12:17:31;1.52;;;0.70;;
74328;SDS011;62745;51.060;13.786;2023-01-06T12:22:39;2.13;;;1.00;;
74328;SDS011;62745;51.060;13.786;2023-01-06T12:25:18;1.90;;;0.77;;
74328;SDS011;62745;51.060;13.786;2023-01-06T12:27:51;1.70;;;1.05;;
74328;SDS011;62745;51.060;13.786;2023-01-06T12:30:35;1.77;;;1.00;;
74328;SDS011;62745;51.060;13.786;2023-01-06T12:39:10;1.40;;;0.70;;
74328;SDS011;62745;51.060;13.786;2023-01-06T12:41:52;2.03;;;0.80;;
74328;SDS011;62745;51.060;13.786;2023-01-06T12:47:18;2.00;;;1.00;;
74328;SDS011;62745;51.060;13.786;2023-01-06T12:52:24;2.03;;;0.90;;
74328;SDS011;62745;51.060;13.786;2023-01-06T12:54:56;1.95;;;0.93;;
74328;SDS011;62745;51.060;13.786;2023-01-06T12:57:37;2.20;;;0.80;;
74328;SDS011;62745;51.060;13.786;2023-01-06T13:05:53;3.58;;;0.80;;
74328;SDS011;62745;51.060;13.786;2023-01-06T13:11:16;2.08;;;0.80;;
74328;SDS011;62745;51.060;13.786;2023-01-06T13:13:55;1.05;;;0.70;;
74328;SDS011;62745;51.060;13.786;2023-01-06T13:22:18;1.52;;;0.80;;
74328;SDS011;62745;51.060;13.786;2023-01-06T13:33:20;6.40;;;0.90;;
74328;SDS011;62745;51.060;13.786;2023-01-06T13:38:50;2.10;;;0.90;;
74328;SDS011;62745;51.060;13.786;2023-01-06T13:41:36;2.05;;;0.90;;
74328;SDS011;62745;51.060;13.786;2023-01-06T13:44:04;6.57;;;1.98;;
74328;SDS011;62745;51.060;13.786;2023-01-06T13:46:36;3.78;;;1.30;;
74328;SDS011;62745;51.060;13.786;2023-01-06T13:49:03;5.35;;;1.33;;
74328;SDS011;62745;51.060;13.786;2023-01-06T13:51:36;1.95;;;0.90;;
74328;SDS011;62745;51.060;13.786;2023-01-06T13:54:04;1.95;;;0.80;;
74328;SDS011;62745;51.060;13.786;2023-01-06T13:56:33;1.53;;;0.50;;
74328;SDS011;62745;51.060;13.786;2023-01-06T13:59:15;1.73;;;0.63;;
74328;SDS011;62745;51.060;13.786;2023-01-06T14:01:42;2.53;;;0.68;;
74328;SDS011;62745;51.060;13.786;2023-01-06T14:07:03;1.05;;;0.50;;
74328;SDS011;62745;51.060;13.786;2023-01-06T14:09:29;2.13;;;1.05;;
74328;SDS011;62745;51.060;13.786;2023-01-06T14:12:08;2.05;;;0.90;;
74328;SDS011;62745;51.060;13.786;2023-01-06T14:14:40;1.75;;;0.70;;
74328;SDS011;62745;51.060;13.786;2023-01-06T14:17:05;2.20;;;0.88;;
74328;SDS011;62745;51.060;13.786;2023-01-06T14:19:51;1.23;;;0.70;;
74328;SDS011;62745;51.060;13.786;2023-01-06T14:22:19;1.30;;;0.80;;
74328;SDS011;62745;51.060;13.786;2023-01-06T14:24:49;1.70;;;0.60;;
74328;SDS011;62745;51.060;13.786;2023-01-06T14:27:20;2.08;;;1.25;;
74328;SDS011;62745;51.060;13.786;2023-01-06T14:30:20;2.47;;;0.90;;
74328;SDS011;62745;51.060;13.786;2023-01-06T14:35:11;2.20;;;0.90;;
74328;SDS011;62745;51.060;13.786;2023-01-06T14:37:44;1.98;;;0.70;;
74328;SDS011;62745;51.060;13.786;2023-01-06T14:40:18;1.30;;;0.70;;
74328;SDS011;62745;51.060;13.786;2023-01-06T14:42:46;1.75;;;0.50;;
74328;SDS011;62745;51.060;13.786;2023-01-06T14:45:23;3.13;;;1.00;;
74328;SDS011;62745;51.060;13.786;2023-01-06T14:48:00;3.08;;;0.75;;
74328;SDS011;62745;51.060;13.786;2023-01-06T14:50:30;2.50;;;0.70;;
74328;SDS011;62745;51.060;13.786;2023-01-06T14:53:04;1.27;;;0.80;;
74328;SDS011;62745;51.060;13.786;2023-01-06T14:55:33;1.65;;;0.85;;
74328;SDS011;62745;51.060;13.786;2023-01-06T14:58:01;1.40;;;0.82;;
74328;SDS011;62745;51.060;13.786;2023-01-06T15:00:27;1.60;;;0.80;;
74328;SDS011;62745;51.060;13.786;2023-01-06T15:02:58;2.85;;;0.77;;
74328;SDS011;62745;51.060;13.786;2023-01-06T15:05:28;2.40;;;0.60;;
74328;SDS011;62745;51.060;13.786;2023-01-06T15:10:34;2.53;;;1.00;;
74328;SDS011;62745;51.060;13.786;2023-01-06T15:13:02;2.42;;;0.85;;
74328;SDS011;62745;51.060;13.786;2023-01-06T15:15:43;2.35;;;0.80;;
74328;SDS011;62745;51.060;13.786;2023-01-06T15:18:10;1.83;;;0.70;;
74328;SDS011;62745;51.060;13.786;2023-01-06T15:20:38;2.00;;;0.90;;
74328;SDS011;62745;51.060;13.786;2023-01-06T15:23:05;3.70;;;1.13;;
74328;SDS011;62745;51.060;13.786;2023-01-06T15:25:32;1.70;;;0.70;;
74328;SDS011;62745;51.060;13.786;2023-01-06T15:28:01;1.88;;;0.80;;
74328;SDS011;62745;51.060;13.786;2023-01-06T15:30:26;2.30;;;0.90;;
74328;SDS011;62745;51.060;13.786;2023-01-06T15:32:54;2.20;;;1.00;;
74328;SDS011;62745;51.060;13.786;2023-01-06T15:35:22;2.05;;;0.80;;
74328;SDS011;62745;51.060;13.786;2023-01-06T15:37:56;2.63;;;0.70;;
74328;SDS011;62745;51.060;13.786;2023-01-06T15:40:24;1.92;;;0.82;;
74328;SDS011;62745;51.060;13.786;2023-01-06T15:42:51;2.50;;;1.00;;
74328;SDS011;62745;51.060;13.786;2023-01-06T15:45:27;3.27;;;0.90;;
74328;SDS011;62745;51.060;13.786;2023-01-06T15:47:56;2.38;;;0.85;;
74328;SDS011;62745;51.060;13.786;2023-01-06T15:50:24;1.67;;;0.70;;
74328;SDS011;62745;51.060;13.786;2023-01-06T15:52:56;1.65;;;0.65;;
74328;SDS011;62745;51.060;13.786;2023-01-06T15:55:26;1.90;;;0.90;;
74328;SDS011;62745;51.060;13.786;2023-01-06T15:57:55;1.38;;;0.70;;
74328;SDS011;62745;51.060;13.786;2023-01-06T16:00:28;5.18;;;1.00;;
74328;SDS011;62745;51.060;13.786;2023-01-06T16:02:57;2.53;;;0.80;;
74328;SDS011;62745;51.060;13.786;2023-01-06T16:05:30;3.00;;;0.98;;
74328;SDS011;62745;51.060;13.786;2023-01-06T16:08:00;2.72;;;0.90;;
74328;SDS011;62745;51.060;13.786;2023-01-06T16:10:27;1.75;;;1.10;;
74328;SDS011;62745;51.060;13.786;2023-01-06T16:13:10;1.77;;;0.85;;
74328;SDS011;62745;51.060;13.786;2023-01-06T16:15:45;3.17;;;1.00;;
74328;SDS011;62745;51.060;13.786;2023-01-06T16:18:16;2.20;;;0.80;;
74328;SDS011;62745;51.060;13.786;2023-01-06T16:20:50;2.95;;;1.00;;
74328;SDS011;62745;51.060;13.786;2023-01-06T16:23:33;3.03;;;0.90;;
74328;SDS011;62745;51.060;13.786;2023-01-06T16:26:08;2.33;;;1.02;;
74328;SDS011;62745;51.060;13.786;2023-01-06T16:28:43;2.75;;;1.00;;
74328;SDS011;62745;51.060;13.786;2023-01-06T16:31:12;3.10;;;1.23;;
74328;SDS011;62745;51.060;13.786;2023-01-06T16:33:40;3.08;;;1.20;;
74328;SDS011;62745;51.060;13.786;2023-01-06T16:36:10;1.55;;;0.70;;
74328;SDS011;62745;51.060;13.786;2023-01-06T16:38:40;1.85;;;0.80;;